sensor_id;sensor_type;location;lat;lon;timestamp;pressure;altitude;pressure_sealevel;temperature;humidity
740;BME280;354;42.694;23.336;2023-03-02T00:00:06;95632.88;;;6.65;100.00
740;BME280;354;42.694;23.336;2023-03-02T00:02:39;95636.38;;;6.72;100.00
740;BME280;354;42.694;23.336;2023-03-02T00:05:06;95632.97;;;6.72;100.00
740;BME280;354;42.694;23.336;2023-03-02T00:07:33;95625.88;;;6.57;100.00
740;BME280;354;42.694;23.336;2023-03-02T00:09:59;95633.00;;;6.49;100.00
740;BME280;354;42.694;23.336;2023-03-02T00:12:29;95623.59;;;6.40;100.00
740;BME280;354;42.694;23.336;2023-03-02T00:14:56;95634.63;;;6.50;100.00
740;BME280;354;42.694;23.336;2023-03-02T00:17:21;95622.66;;;6.32;100.00
740;BME280;354;42.694;23.336;2023-03-02T00:19:54;95629.63;;;6.40;100.00
740;BME280;354;42.694;23.336;2023-03-02T00:22:34;95625.56;;;6.38;100.00
740;BME280;354;42.694;23.336;2023-03-02T00:24:59;95623.00;;;6.29;100.00
740;BME280;354;42.694;23.336;2023-03-02T00:27:24;95594.50;;;6.20;100.00
740;BME280;354;42.694;23.336;2023-03-02T00:29:56;95616.16;;;6.28;100.00
740;BME280;354;42.694;23.336;2023-03-02T00:32:22;95615.47;;;6.34;100.00
740;BME280;354;42.694;23.336;2023-03-02T00:34:47;95615.00;;;6.31;100.00
740;BME280;354;42.694;23.336;2023-03-02T00:37:13;95611.63;;;6.22;100.00
740;BME280;354;42.694;23.336;2023-03-02T00:39:38;95595.38;;;6.12;100.00
740;BME280;354;42.694;23.336;2023-03-02T00:42:03;95590.84;;;6.29;100.00
740;BME280;354;42.694;23.336;2023-03-02T00:44:29;95602.00;;;6.23;100.00
740;BME280;354;42.694;23.336;2023-03-02T00:46:54;95602.47;;;6.26;100.00
740;BME280;354;42.694;23.336;2023-03-02T00:49:20;95606.06;;;6.25;100.00
740;BME280;354;42.694;23.336;2023-03-02T00:51:46;95590.16;;;6.12;100.00
740;BME280;354;42.694;23.336;2023-03-02T00:54:11;95592.69;;;6.20;100.00
740;BME280;354;42.694;23.336;2023-03-02T00:56:36;95588.19;;;6.14;100.00
740;BME280;354;42.694;23.336;2023-03-02T00:59:06;95597.28;;;6.18;100.00
740;BME280;354;42.694;23.336;2023-03-02T01:01:36;95585.66;;;6.21;100.00
740;BME280;354;42.694;23.336;2023-03-02T01:04:01;95580.63;;;6.19;100.00
740;BME280;354;42.694;23.336;2023-03-02T01:06:27;95584.75;;;6.14;100.00
740;BME280;354;42.694;23.336;2023-03-02T01:08:52;95566.69;;;6.04;100.00
740;BME280;354;42.694;23.336;2023-03-02T01:11:20;95556.22;;;6.12;100.00
740;BME280;354;42.694;23.336;2023-03-02T01:13:45;95564.03;;;6.12;100.00
740;BME280;354;42.694;23.336;2023-03-02T01:16:11;95567.94;;;6.16;100.00
740;BME280;354;42.694;23.336;2023-03-02T01:18:37;95542.94;;;5.99;100.00
740;BME280;354;42.694;23.336;2023-03-02T01:21:14;95564.75;;;6.06;100.00
740;BME280;354;42.694;23.336;2023-03-02T01:23:40;95557.22;;;6.11;100.00
740;BME280;354;42.694;23.336;2023-03-02T01:26:06;95561.06;;;6.15;100.00
740;BME280;354;42.694;23.336;2023-03-02T01:28:31;95565.19;;;6.10;100.00
740;BME280;354;42.694;23.336;2023-03-02T01:30:57;95566.06;;;6.02;100.00
740;BME280;354;42.694;23.336;2023-03-02T01:33:22;95565.50;;;5.92;100.00
740;BME280;354;42.694;23.336;2023-03-02T01:35:48;95566.59;;;5.97;100.00
740;BME280;354;42.694;23.336;2023-03-02T01:38:13;95565.75;;;6.05;100.00
740;BME280;354;42.694;23.336;2023-03-02T01:40:39;95567.69;;;6.03;100.00
740;BME280;354;42.694;23.336;2023-03-02T01:43:13;95559.56;;;5.98;100.00
740;BME280;354;42.694;23.336;2023-03-02T01:45:47;95554.00;;;6.01;100.00
740;BME280;354;42.694;23.336;2023-03-02T01:48:14;95560.84;;;6.02;100.00
740;BME280;354;42.694;23.336;2023-03-02T01:50:40;95541.81;;;5.93;100.00
740;BME280;354;42.694;23.336;2023-03-02T01:53:06;95549.09;;;6.06;100.00
740;BME280;354;42.694;23.336;2023-03-02T01:55:32;95538.25;;;5.86;100.00
740;BME280;354;42.694;23.336;2023-03-02T01:58:01;95554.63;;;6.03;100.00
740;BME280;354;42.694;23.336;2023-03-02T02:00:33;95548.69;;;5.94;100.00
740;BME280;354;42.694;23.336;2023-03-02T02:03:03;95551.69;;;6.06;100.00
740;BME280;354;42.694;23.336;2023-03-02T02:05:36;95544.28;;;5.95;100.00
740;BME280;354;42.694;23.336;2023-03-02T02:08:02;95549.78;;;6.00;100.00
740;BME280;354;42.694;23.336;2023-03-02T02:10:28;95547.69;;;5.87;100.00
740;BME280;354;42.694;23.336;2023-03-02T02:12:55;95545.28;;;5.86;100.00
740;BME280;354;42.694;23.336;2023-03-02T02:15:20;95544.41;;;5.93;100.00
740;BME280;354;42.694;23.336;2023-03-02T02:17:46;95528.88;;;5.77;100.00
740;BME280;354;42.694;23.336;2023-03-02T02:20:40;95550.16;;;5.89;100.00
740;BME280;354;42.694;23.336;2023-03-02T02:23:32;95552.38;;;5.77;100.00
740;BME280;354;42.694;23.336;2023-03-02T02:26:08;95557.03;;;5.81;100.00
740;BME280;354;42.694;23.336;2023-03-02T02:28:43;95549.94;;;5.98;100.00
740;BME280;354;42.694;23.336;2023-03-02T02:33:43;95546.41;;;5.91;100.00
740;BME280;354;42.694;23.336;2023-03-02T02:36:17;95551.13;;;5.88;100.00
740;BME280;354;42.694;23.336;2023-03-02T02:38:45;95556.50;;;5.94;100.00
740;BME280;354;42.694;23.336;2023-03-02T02:41:18;95553.09;;;5.86;100.00
740;BME280;354;42.694;23.336;2023-03-02T02:43:45;95529.72;;;5.69;100.00
740;BME280;354;42.694;23.336;2023-03-02T02:46:11;95544.06;;;5.73;100.00
740;BME280;354;42.694;23.336;2023-03-02T02:48:37;95534.91;;;5.77;100.00
740;BME280;354;42.694;23.336;2023-03-02T02:51:05;95543.69;;;5.76;100.00
740;BME280;354;42.694;23.336;2023-03-02T02:53:40;95543.41;;;5.71;100.00
740;BME280;354;42.694;23.336;2023-03-02T02:56:07;95549.16;;;5.67;100.00
740;BME280;354;42.694;23.336;2023-03-02T02:58:39;95540.75;;;5.79;100.00
740;BME280;354;42.694;23.336;2023-03-02T03:01:06;95519.41;;;5.76;100.00
740;BME280;354;42.694;23.336;2023-03-02T03:03:33;95529.97;;;5.82;100.00
740;BME280;354;42.694;23.336;2023-03-02T03:06:03;95515.81;;;5.77;100.00
740;BME280;354;42.694;23.336;2023-03-02T03:11:15;95532.59;;;5.82;100.00
740;BME280;354;42.694;23.336;2023-03-02T03:13:45;95534.97;;;5.92;100.00
740;BME280;354;42.694;23.336;2023-03-02T03:16:14;95527.63;;;5.96;100.00
740;BME280;354;42.694;23.336;2023-03-02T03:18:47;95524.00;;;5.97;100.00
740;BME280;354;42.694;23.336;2023-03-02T03:21:14;95522.38;;;5.96;100.00
740;BME280;354;42.694;23.336;2023-03-02T03:23:42;95519.59;;;5.97;100.00
740;BME280;354;42.694;23.336;2023-03-02T03:26:08;95529.91;;;5.91;100.00
740;BME280;354;42.694;23.336;2023-03-02T03:28:33;95530.97;;;6.04;100.00
740;BME280;354;42.694;23.336;2023-03-02T03:31:00;95531.22;;;5.95;100.00
740;BME280;354;42.694;23.336;2023-03-02T03:33:26;95531.50;;;6.00;100.00
740;BME280;354;42.694;23.336;2023-03-02T03:35:51;95524.00;;;5.97;100.00
740;BME280;354;42.694;23.336;2023-03-02T03:38:17;95521.09;;;5.92;100.00
740;BME280;354;42.694;23.336;2023-03-02T03:40:43;95539.84;;;5.95;100.00
740;BME280;354;42.694;23.336;2023-03-02T03:43:08;95538.72;;;5.90;100.00
740;BME280;354;42.694;23.336;2023-03-02T03:45:34;95537.81;;;5.82;100.00
740;BME280;354;42.694;23.336;2023-03-02T03:48:00;95530.31;;;5.79;100.00
740;BME280;354;42.694;23.336;2023-03-02T03:50:25;95524.81;;;5.97;100.00
740;BME280;354;42.694;23.336;2023-03-02T03:52:51;95526.97;;;5.94;100.00
740;BME280;354;42.694;23.336;2023-03-02T03:55:16;95532.84;;;5.96;100.00
740;BME280;354;42.694;23.336;2023-03-02T03:57:42;95532.34;;;5.92;100.00
740;BME280;354;42.694;23.336;2023-03-02T04:00:09;95531.59;;;5.84;100.00
740;BME280;354;42.694;23.336;2023-03-02T04:02:37;95529.59;;;5.86;100.00
740;BME280;354;42.694;23.336;2023-03-02T04:05:03;95538.13;;;5.79;100.00
740;BME280;354;42.694;23.336;2023-03-02T04:07:36;95541.09;;;5.76;100.00
740;BME280;354;42.694;23.336;2023-03-02T04:10:04;95536.22;;;5.73;100.00
740;BME280;354;42.694;23.336;2023-03-02T04:12:31;95535.81;;;5.85;100.00
740;BME280;354;42.694;23.336;2023-03-02T04:14:58;95536.84;;;5.75;100.00
740;BME280;354;42.694;23.336;2023-03-02T04:17:24;95532.03;;;5.64;100.00
740;BME280;354;42.694;23.336;2023-03-02T04:19:49;95531.41;;;5.62;100.00
740;BME280;354;42.694;23.336;2023-03-02T04:22:15;95528.09;;;5.68;100.00
740;BME280;354;42.694;23.336;2023-03-02T04:24:41;95534.09;;;5.77;100.00
740;BME280;354;42.694;23.336;2023-03-02T04:27:07;95526.41;;;5.75;100.00
740;BME280;354;42.694;23.336;2023-03-02T04:29:34;95523.81;;;5.75;100.00
740;BME280;354;42.694;23.336;2023-03-02T04:31:59;95528.41;;;5.73;100.00
740;BME280;354;42.694;23.336;2023-03-02T04:34:25;95525.19;;;5.63;100.00
740;BME280;354;42.694;23.336;2023-03-02T04:36:51;95528.44;;;5.65;100.00
740;BME280;354;42.694;23.336;2023-03-02T04:39:17;95505.53;;;5.52;100.00
740;BME280;354;42.694;23.336;2023-03-02T04:41:44;95510.13;;;5.50;100.00
740;BME280;354;42.694;23.336;2023-03-02T04:44:10;95530.94;;;5.59;100.00
740;BME280;354;42.694;23.336;2023-03-02T04:46:35;95542.84;;;5.61;100.00
740;BME280;354;42.694;23.336;2023-03-02T04:49:01;95547.69;;;5.64;100.00
740;BME280;354;42.694;23.336;2023-03-02T04:51:38;95552.72;;;5.66;100.00
740;BME280;354;42.694;23.336;2023-03-02T04:54:15;95550.56;;;5.46;100.00
740;BME280;354;42.694;23.336;2023-03-02T04:56:41;95538.22;;;5.40;100.00
740;BME280;354;42.694;23.336;2023-03-02T04:59:06;95549.00;;;5.60;100.00
740;BME280;354;42.694;23.336;2023-03-02T05:01:32;95547.69;;;5.64;100.00
740;BME280;354;42.694;23.336;2023-03-02T05:03:57;95550.50;;;5.54;100.00
740;BME280;354;42.694;23.336;2023-03-02T05:06:23;95542.06;;;5.52;100.00
740;BME280;354;42.694;23.336;2023-03-02T05:08:50;95514.22;;;5.45;100.00
740;BME280;354;42.694;23.336;2023-03-02T05:11:16;95540.72;;;5.57;100.00
740;BME280;354;42.694;23.336;2023-03-02T05:14:07;95536.28;;;5.34;100.00
740;BME280;354;42.694;23.336;2023-03-02T05:16:34;95551.25;;;5.40;100.00
740;BME280;354;42.694;23.336;2023-03-02T05:19:04;95555.91;;;5.53;100.00
740;BME280;354;42.694;23.336;2023-03-02T05:21:30;95541.44;;;5.50;100.00
740;BME280;354;42.694;23.336;2023-03-02T05:23:55;95552.28;;;5.62;100.00
740;BME280;354;42.694;23.336;2023-03-02T05:26:21;95556.28;;;5.73;100.00
740;BME280;354;42.694;23.336;2023-03-02T05:28:46;95552.06;;;5.72;100.00
740;BME280;354;42.694;23.336;2023-03-02T05:31:26;95554.59;;;5.80;100.00
740;BME280;354;42.694;23.336;2023-03-02T05:33:53;95558.69;;;5.82;100.00
740;BME280;354;42.694;23.336;2023-03-02T05:36:18;95546.09;;;5.86;100.00
740;BME280;354;42.694;23.336;2023-03-02T05:38:44;95566.59;;;5.97;100.00
740;BME280;354;42.694;23.336;2023-03-02T05:41:09;95563.69;;;6.15;100.00
740;BME280;354;42.694;23.336;2023-03-02T05:43:35;95570.59;;;6.08;100.00
740;BME280;354;42.694;23.336;2023-03-02T05:46:01;95548.28;;;6.05;100.00
740;BME280;354;42.694;23.336;2023-03-02T05:48:28;95548.66;;;6.17;100.00
740;BME280;354;42.694;23.336;2023-03-02T05:50:54;95561.16;;;6.45;100.00
740;BME280;354;42.694;23.336;2023-03-02T05:53:19;95556.84;;;6.52;100.00
740;BME280;354;42.694;23.336;2023-03-02T05:55:45;95545.13;;;6.48;100.00
740;BME280;354;42.694;23.336;2023-03-02T05:58:12;95565.72;;;6.66;100.00
740;BME280;354;42.694;23.336;2023-03-02T06:00:40;95558.69;;;6.66;100.00
740;BME280;354;42.694;23.336;2023-03-02T06:03:06;95562.19;;;6.73;100.00
740;BME280;354;42.694;23.336;2023-03-02T06:05:31;95563.47;;;6.77;100.00
740;BME280;354;42.694;23.336;2023-03-02T06:07:57;95564.63;;;6.75;100.00
740;BME280;354;42.694;23.336;2023-03-02T06:10:23;95567.09;;;6.76;100.00
740;BME280;354;42.694;23.336;2023-03-02T06:12:48;95573.91;;;6.92;100.00
740;BME280;354;42.694;23.336;2023-03-02T06:15:14;95577.38;;;6.93;100.00
740;BME280;354;42.694;23.336;2023-03-02T06:17:39;95573.13;;;6.92;100.00
740;BME280;354;42.694;23.336;2023-03-02T06:20:05;95567.09;;;6.76;100.00
740;BME280;354;42.694;23.336;2023-03-02T06:22:43;95583.56;;;6.92;100.00
740;BME280;354;42.694;23.336;2023-03-02T06:25:17;95586.09;;;6.85;100.00
740;BME280;354;42.694;23.336;2023-03-02T06:27:43;95588.34;;;6.73;100.00
740;BME280;354;42.694;23.336;2023-03-02T06:30:13;95568.59;;;6.85;100.00
740;BME280;354;42.694;23.336;2023-03-02T06:32:40;95579.25;;;6.84;100.00
740;BME280;354;42.694;23.336;2023-03-02T06:35:07;95596.38;;;6.86;100.00
740;BME280;354;42.694;23.336;2023-03-02T06:37:33;95591.88;;;6.95;100.00
740;BME280;354;42.694;23.336;2023-03-02T06:39:59;95597.13;;;6.95;100.00
740;BME280;354;42.694;23.336;2023-03-02T06:42:25;95579.44;;;6.82;100.00
740;BME280;354;42.694;23.336;2023-03-02T06:44:51;95586.66;;;6.95;100.00
740;BME280;354;42.694;23.336;2023-03-02T06:47:19;95584.13;;;7.02;100.00
740;BME280;354;42.694;23.336;2023-03-02T06:49:45;95568.16;;;7.26;100.00
740;BME280;354;42.694;23.336;2023-03-02T06:52:10;95579.53;;;7.33;100.00
740;BME280;354;42.694;23.336;2023-03-02T06:54:37;95578.88;;;7.46;100.00
740;BME280;354;42.694;23.336;2023-03-02T06:57:03;95585.38;;;7.50;100.00
740;BME280;354;42.694;23.336;2023-03-02T06:59:28;95580.50;;;7.47;100.00
740;BME280;354;42.694;23.336;2023-03-02T07:01:54;95571.47;;;7.50;100.00
740;BME280;354;42.694;23.336;2023-03-02T07:04:19;95580.41;;;7.40;100.00
740;BME280;354;42.694;23.336;2023-03-02T07:06:45;95579.19;;;7.36;100.00
740;BME280;354;42.694;23.336;2023-03-02T07:09:12;95584.22;;;7.23;100.00
740;BME280;354;42.694;23.336;2023-03-02T07:11:38;95579.44;;;7.27;100.00
740;BME280;354;42.694;23.336;2023-03-02T07:14:04;95581.34;;;7.18;100.00
740;BME280;354;42.694;23.336;2023-03-02T07:16:29;95584.88;;;7.25;100.00
740;BME280;354;42.694;23.336;2023-03-02T07:18:55;95559.25;;;7.06;100.00
740;BME280;354;42.694;23.336;2023-03-02T07:21:21;95585.84;;;7.24;100.00
740;BME280;354;42.694;23.336;2023-03-02T07:23:46;95580.19;;;7.21;100.00
740;BME280;354;42.694;23.336;2023-03-02T07:26:11;95581.41;;;7.25;100.00
740;BME280;354;42.694;23.336;2023-03-02T07:28:38;95583.66;;;7.13;100.00
740;BME280;354;42.694;23.336;2023-03-02T07:31:04;95582.69;;;7.14;100.00
740;BME280;354;42.694;23.336;2023-03-02T07:33:30;95576.22;;;7.10;100.00
740;BME280;354;42.694;23.336;2023-03-02T07:35:56;95591.78;;;7.18;100.00
740;BME280;354;42.694;23.336;2023-03-02T07:38:21;95585.50;;;7.27;100.00
740;BME280;354;42.694;23.336;2023-03-02T07:40:46;95592.69;;;7.40;100.00
740;BME280;354;42.694;23.336;2023-03-02T07:43:12;95585.81;;;7.54;100.00
740;BME280;354;42.694;23.336;2023-03-02T07:45:37;95589.13;;;7.62;100.00
740;BME280;354;42.694;23.336;2023-03-02T07:48:03;95578.66;;;7.99;100.00
740;BME280;354;42.694;23.336;2023-03-02T07:50:29;95580.41;;;7.91;100.00
740;BME280;354;42.694;23.336;2023-03-02T07:52:55;95585.63;;;8.13;100.00
740;BME280;354;42.694;23.336;2023-03-02T07:55:21;95585.88;;;8.18;100.00
740;BME280;354;42.694;23.336;2023-03-02T07:57:46;95565.75;;;7.97;100.00
740;BME280;354;42.694;23.336;2023-03-02T08:00:12;95573.44;;;8.20;100.00
740;BME280;354;42.694;23.336;2023-03-02T08:02:41;95582.72;;;8.23;100.00
740;BME280;354;42.694;23.336;2023-03-02T08:05:07;95580.19;;;8.08;100.00
740;BME280;354;42.694;23.336;2023-03-02T08:07:32;95576.53;;;7.87;100.00
740;BME280;354;42.694;23.336;2023-03-02T08:09:58;95562.19;;;7.83;100.00
740;BME280;354;42.694;23.336;2023-03-02T08:12:25;95563.66;;;7.71;100.00
740;BME280;354;42.694;23.336;2023-03-02T08:14:51;95575.56;;;7.74;100.00
740;BME280;354;42.694;23.336;2023-03-02T08:17:16;95575.31;;;7.69;100.00
740;BME280;354;42.694;23.336;2023-03-02T08:19:41;95566.00;;;7.81;100.00
740;BME280;354;42.694;23.336;2023-03-02T08:22:07;95574.13;;;7.71;100.00
740;BME280;354;42.694;23.336;2023-03-02T08:24:32;95568.63;;;7.66;100.00
740;BME280;354;42.694;23.336;2023-03-02T08:27:02;95580.63;;;7.75;100.00
740;BME280;354;42.694;23.336;2023-03-02T08:29:27;95573.03;;;7.80;100.00
740;BME280;354;42.694;23.336;2023-03-02T08:31:53;95558.41;;;7.86;100.00
740;BME280;354;42.694;23.336;2023-03-02T08:34:18;95542.47;;;7.66;100.00
740;BME280;354;42.694;23.336;2023-03-02T08:36:44;95566.47;;;7.91;100.00
740;BME280;354;42.694;23.336;2023-03-02T08:39:10;95571.31;;;8.09;100.00
740;BME280;354;42.694;23.336;2023-03-02T08:41:35;95574.03;;;8.22;100.00
740;BME280;354;42.694;23.336;2023-03-02T08:44:01;95568.44;;;8.25;100.00
740;BME280;354;42.694;23.336;2023-03-02T08:46:26;95574.81;;;8.16;100.00
740;BME280;354;42.694;23.336;2023-03-02T08:48:52;95559.06;;;7.95;100.00
740;BME280;354;42.694;23.336;2023-03-02T08:51:20;95563.56;;;8.01;100.00
740;BME280;354;42.694;23.336;2023-03-02T08:53:48;95577.44;;;7.80;100.00
740;BME280;354;42.694;23.336;2023-03-02T08:56:33;95566.63;;;7.68;100.00
740;BME280;354;42.694;23.336;2023-03-02T08:59:02;95568.75;;;7.94;100.00
740;BME280;354;42.694;23.336;2023-03-02T09:01:30;95544.34;;;7.93;100.00
740;BME280;354;42.694;23.336;2023-03-02T09:03:57;95563.06;;;8.33;100.00
740;BME280;354;42.694;23.336;2023-03-02T09:06:25;95549.47;;;8.23;100.00
740;BME280;354;42.694;23.336;2023-03-02T09:08:50;95531.38;;;8.07;100.00
740;BME280;354;42.694;23.336;2023-03-02T09:11:16;95553.94;;;8.29;100.00
740;BME280;354;42.694;23.336;2023-03-02T09:13:42;95555.41;;;8.53;100.00
740;BME280;354;42.694;23.336;2023-03-02T09:16:08;95552.25;;;8.64;100.00
740;BME280;354;42.694;23.336;2023-03-02T09:18:34;95554.38;;;8.82;100.00
740;BME280;354;42.694;23.336;2023-03-02T09:20:59;95551.16;;;8.80;100.00
740;BME280;354;42.694;23.336;2023-03-02T09:23:25;95560.84;;;8.80;100.00
740;BME280;354;42.694;23.336;2023-03-02T09:25:52;95549.88;;;8.69;100.00
740;BME280;354;42.694;23.336;2023-03-02T09:28:18;95557.78;;;8.76;100.00
740;BME280;354;42.694;23.336;2023-03-02T09:30:48;95557.22;;;8.81;100.00
740;BME280;354;42.694;23.336;2023-03-02T09:33:13;95551.22;;;8.59;100.00
740;BME280;354;42.694;23.336;2023-03-02T09:35:39;95542.38;;;8.66;100.00
740;BME280;354;42.694;23.336;2023-03-02T09:38:04;95559.63;;;8.82;100.00
740;BME280;354;42.694;23.336;2023-03-02T09:40:31;95552.56;;;8.83;100.00
740;BME280;354;42.694;23.336;2023-03-02T09:48:37;95548.28;;;8.47;100.00
740;BME280;354;42.694;23.336;2023-03-02T09:54:03;95549.91;;;8.48;100.00
740;BME280;354;42.694;23.336;2023-03-02T09:56:34;95551.69;;;8.41;100.00
740;BME280;354;42.694;23.336;2023-03-02T09:59:05;95552.31;;;8.28;100.00
740;BME280;354;42.694;23.336;2023-03-02T10:01:46;95545.41;;;8.21;100.00
740;BME280;354;42.694;23.336;2023-03-02T10:04:28;95535.28;;;8.17;100.00
740;BME280;354;42.694;23.336;2023-03-02T10:07:09;95543.81;;;8.41;100.00
740;BME280;354;42.694;23.336;2023-03-02T10:09:36;95536.47;;;8.58;100.00
740;BME280;354;42.694;23.336;2023-03-02T10:14:58;95551.16;;;8.80;100.00
740;BME280;354;42.694;23.336;2023-03-02T10:20:15;95554.75;;;8.51;100.00
740;BME280;354;42.694;23.336;2023-03-02T10:22:46;95546.25;;;8.42;100.00
740;BME280;354;42.694;23.336;2023-03-02T10:28:10;95539.31;;;8.13;100.00
740;BME280;354;42.694;23.336;2023-03-02T10:30:38;95533.88;;;7.93;100.00
740;BME280;354;42.694;23.336;2023-03-02T10:33:18;95520.16;;;7.91;100.00
740;BME280;354;42.694;23.336;2023-03-02T10:35:47;95534.38;;;8.04;100.00
740;BME280;354;42.694;23.336;2023-03-02T10:38:15;95509.56;;;7.78;100.00
740;BME280;354;42.694;23.336;2023-03-02T10:40:57;95540.88;;;8.08;100.00
740;BME280;354;42.694;23.336;2023-03-02T10:46:03;95519.03;;;8.43;100.00
740;BME280;354;42.694;23.336;2023-03-02T10:48:29;95524.13;;;8.80;100.00
740;BME280;354;42.694;23.336;2023-03-02T10:50:56;95502.69;;;8.76;100.00
740;BME280;354;42.694;23.336;2023-03-02T10:53:22;95521.72;;;8.85;100.00
740;BME280;354;42.694;23.336;2023-03-02T10:55:50;95531.78;;;8.81;100.00
740;BME280;354;42.694;23.336;2023-03-02T11:01:15;95505.59;;;8.53;100.00
740;BME280;354;42.694;23.336;2023-03-02T11:03:41;95516.09;;;8.88;100.00
740;BME280;354;42.694;23.336;2023-03-02T11:06:18;95518.34;;;8.91;100.00
740;BME280;354;42.694;23.336;2023-03-02T11:08:44;95500.84;;;9.05;100.00
740;BME280;354;42.694;23.336;2023-03-02T11:11:23;95502.31;;;9.14;100.00
740;BME280;354;42.694;23.336;2023-03-02T11:13:48;95505.84;;;9.34;100.00
740;BME280;354;42.694;23.336;2023-03-02T11:18:57;95484.94;;;9.87;100.00
740;BME280;354;42.694;23.336;2023-03-02T11:37:19;95484.59;;;10.23;100.00
740;BME280;354;42.694;23.336;2023-03-02T11:42:25;95471.75;;;9.61;100.00
740;BME280;354;42.694;23.336;2023-03-02T11:44:52;95472.38;;;9.63;100.00
740;BME280;354;42.694;23.336;2023-03-02T11:47:19;95472.22;;;9.84;100.00
740;BME280;354;42.694;23.336;2023-03-02T11:49:56;95454.25;;;9.94;100.00
740;BME280;354;42.694;23.336;2023-03-02T11:52:25;95454.03;;;10.16;100.00
740;BME280;354;42.694;23.336;2023-03-02T11:54:55;95440.50;;;10.06;100.00
740;BME280;354;42.694;23.336;2023-03-02T11:57:53;95474.69;;;10.39;100.00
740;BME280;354;42.694;23.336;2023-03-02T12:00:39;95478.50;;;10.23;100.00
740;BME280;354;42.694;23.336;2023-03-02T12:03:18;95473.84;;;9.98;100.00
740;BME280;354;42.694;23.336;2023-03-02T12:10:56;95471.25;;;9.24;100.00
740;BME280;354;42.694;23.336;2023-03-02T12:13:26;95463.19;;;8.84;100.00
740;BME280;354;42.694;23.336;2023-03-02T12:15:52;95475.69;;;8.82;100.00
740;BME280;354;42.694;23.336;2023-03-02T12:20:58;95465.28;;;8.95;100.00
740;BME280;354;42.694;23.336;2023-03-02T12:23:24;95475.69;;;8.82;100.00
740;BME280;354;42.694;23.336;2023-03-02T12:26:24;95471.34;;;8.61;100.00
740;BME280;354;42.694;23.336;2023-03-02T12:31:50;95476.41;;;8.63;100.00
740;BME280;354;42.694;23.336;2023-03-02T12:36:49;95463.66;;;8.94;100.00
740;BME280;354;42.694;23.336;2023-03-02T12:45:09;95456.66;;;10.09;100.00
740;BME280;354;42.694;23.336;2023-03-02T12:47:36;95472.88;;;10.26;100.00
740;BME280;354;42.694;23.336;2023-03-02T12:50:05;95476.06;;;10.54;100.00
740;BME280;354;42.694;23.336;2023-03-02T12:52:35;95466.38;;;9.95;100.00
740;BME280;354;42.694;23.336;2023-03-02T12:55:05;95474.81;;;9.71;100.00
740;BME280;354;42.694;23.336;2023-03-02T12:57:32;95457.81;;;9.67;100.00
740;BME280;354;42.694;23.336;2023-03-02T13:00:00;95461.31;;;10.00;100.00
740;BME280;354;42.694;23.336;2023-03-02T13:02:34;95435.22;;;9.86;100.00
740;BME280;354;42.694;23.336;2023-03-02T13:05:01;95456.50;;;10.31;100.00
740;BME280;354;42.694;23.336;2023-03-02T13:07:39;95430.59;;;10.34;100.00
740;BME280;354;42.694;23.336;2023-03-02T13:10:21;95449.28;;;10.91;100.00
740;BME280;354;42.694;23.336;2023-03-02T13:12:49;95435.81;;;10.61;100.00
740;BME280;354;42.694;23.336;2023-03-02T13:15:15;95447.34;;;10.60;100.00
740;BME280;354;42.694;23.336;2023-03-02T13:17:41;95434.81;;;10.48;100.00
740;BME280;354;42.694;23.336;2023-03-02T13:20:11;95425.13;;;10.16;100.00
740;BME280;354;42.694;23.336;2023-03-02T13:22:37;95424.72;;;10.32;100.00
740;BME280;354;42.694;23.336;2023-03-02T13:25:05;95423.31;;;10.23;100.00
740;BME280;354;42.694;23.336;2023-03-02T13:27:32;95424.75;;;10.25;100.00
740;BME280;354;42.694;23.336;2023-03-02T13:30:22;95428.53;;;10.16;100.00
740;BME280;354;42.694;23.336;2023-03-02T13:32:47;95427.16;;;10.07;100.00
740;BME280;354;42.694;23.336;2023-03-02T13:35:19;95419.47;;;9.86;100.00
740;BME280;354;42.694;23.336;2023-03-02T13:37:58;95423.50;;;9.62;100.00
740;BME280;354;42.694;23.336;2023-03-02T13:40:40;95410.47;;;9.27;100.00
740;BME280;354;42.694;23.336;2023-03-02T13:48:36;95407.63;;;9.22;100.00
740;BME280;354;42.694;23.336;2023-03-02T13:51:13;95406.06;;;9.34;100.00
740;BME280;354;42.694;23.336;2023-03-02T13:53:42;95411.69;;;9.24;100.00
740;BME280;354;42.694;23.336;2023-03-02T13:56:11;95406.88;;;9.41;100.00
740;BME280;354;42.694;23.336;2023-03-02T13:58:39;95416.34;;;9.29;100.00
740;BME280;354;42.694;23.336;2023-03-02T14:01:05;95404.09;;;9.63;100.00
740;BME280;354;42.694;23.336;2023-03-02T14:03:31;95408.75;;;9.87;100.00
740;BME280;354;42.694;23.336;2023-03-02T14:05:58;95401.28;;;10.31;100.00
740;BME280;354;42.694;23.336;2023-03-02T14:08:24;95407.66;;;10.68;100.00
740;BME280;354;42.694;23.336;2023-03-02T14:10:52;95398.19;;;10.53;100.00
740;BME280;354;42.694;23.336;2023-03-02T14:13:34;95400.63;;;10.55;100.00
740;BME280;354;42.694;23.336;2023-03-02T14:16:01;95392.34;;;10.38;100.00
740;BME280;354;42.694;23.336;2023-03-02T14:18:35;95395.59;;;10.20;100.00
740;BME280;354;42.694;23.336;2023-03-02T14:21:01;95395.00;;;10.18;100.00
740;BME280;354;42.694;23.336;2023-03-02T14:23:27;95383.28;;;9.88;100.00
740;BME280;354;42.694;23.336;2023-03-02T14:25:54;95386.31;;;9.71;100.00
740;BME280;354;42.694;23.336;2023-03-02T14:28:24;95386.91;;;9.67;100.00
740;BME280;354;42.694;23.336;2023-03-02T14:30:53;95361.25;;;9.42;100.00
740;BME280;354;42.694;23.336;2023-03-02T14:33:19;95396.75;;;9.25;100.00
740;BME280;354;42.694;23.336;2023-03-02T14:35:45;95386.47;;;9.23;100.00
740;BME280;354;42.694;23.336;2023-03-02T14:38:10;95388.66;;;9.13;100.00
740;BME280;354;42.694;23.336;2023-03-02T14:40:37;95399.53;;;9.10;100.00
740;BME280;354;42.694;23.336;2023-03-02T14:43:02;95367.06;;;9.18;100.00
740;BME280;354;42.694;23.336;2023-03-02T14:45:28;95394.56;;;9.35;100.00
740;BME280;354;42.694;23.336;2023-03-02T14:47:53;95392.91;;;9.14;100.00
740;BME280;354;42.694;23.336;2023-03-02T14:50:18;95373.38;;;8.76;100.00